Terminal Aerodrome Forecast
Issued by NWS Wilmington, OH

Current Version | Previous Version | Graphics & Text | Print | Product List | Glossary On
Versions: 1 2 3 4 5 6 7 8 9 10 11 12 13 14 15 16 17 18 19 20 21 22 23 24
000
FTUS41 KILN 202300
TAFCVG
TAF
KCVG 202333Z 2100/2206 VRB03KT P6SM SCT250
      TEMPO 2100/2101 BKN250
     FM210600 VRB03KT P6SM BKN200
     FM211500 22008KT P6SM SCT050 BKN150
     FM212100 23011KT P6SM SCT040 OVC100
     FM220300 22008KT 5SM -SHRA VCTS BKN040CB OVC100=

USA.gov is the U.S. government's official web portal to all federal, state and local government web resources and services.